Terminal Aerodrome Forecast
Issued by NWS

Home | Current Version | Previous Version | Text Only | Print | Product List | Glossary On
Versions: 1 2 3 4 5 6 7 8 9 10 11 12 13 14 15 16 17 18 19 20 21 22 23 24 25 26 27 28
000
FTUS46 KMFR 310520
TAFRBG
TAF
KRBG 310520Z 3106/0106 01003KT P6SM -RA BKN007 OVC012
     FM310800 VRB02KT 5SM BR OVC010
     FM311700 36003KT P6SM SCT200
     FM312200 36008G15KT P6SM BKN200
     FM010400 35004KT P6SM SCT015 BKN200=

USA.gov is the U.S. government's official web portal to all federal, state and local government web resources and services.